ENRH weather

Oslo Heliport, Rikshospitalet
Oslo, Oslo, Norway

Public forecast

Using degrees Celsius for public forecast. Weather courtesy of forecast.io.

Closest aviation weather report (METAR) to Oslo Heliport, Rikshospitalet

Closest report is Oslo, Fornebu Airport, 4.3 nm (8.0 km) SW. Retrieved 2020/05/27 20:20 UTC (9 minutes ago):

ENFB 272020Z AUTO 25015KT 9999NDV OVC047/// ///// Q//// W///S4

Closest aviation forecast (TAF) to Oslo Heliport, Rikshospitalet

Closest forecast is Oslo Gardermoen Airport, 18.7 nm (34.6 km) NE. Retrieved 2020/05/27 18:57 UTC (2 hours ago):

TAF ENGM 271700Z 2718/2818 32007KT CAVOK